sensor_id;sensor_type;location;lat;lon;timestamp;P1;durP1;ratioP1;P2;durP2;ratioP2
72201;SDS011;60105;54.956;73.412;2022-07-19T00:00:56;32.67;;;22.90;;
72201;SDS011;60105;54.956;73.412;2022-07-19T00:03:22;28.92;;;22.85;;
72201;SDS011;60105;54.956;73.412;2022-07-19T00:05:49;29.38;;;21.63;;
72201;SDS011;60105;54.956;73.412;2022-07-19T00:08:20;28.43;;;21.07;;
72201;SDS011;60105;54.956;73.412;2022-07-19T00:10:46;30.90;;;22.98;;
72201;SDS011;60105;54.956;73.412;2022-07-19T00:13:12;31.52;;;22.80;;
72201;SDS011;60105;54.956;73.412;2022-07-19T00:15:38;28.48;;;22.23;;
72201;SDS011;60105;54.956;73.412;2022-07-19T00:18:09;30.83;;;21.92;;
72201;SDS011;60105;54.956;73.412;2022-07-19T00:20:36;30.30;;;22.03;;
72201;SDS011;60105;54.956;73.412;2022-07-19T00:23:07;34.00;;;22.83;;
72201;SDS011;60105;54.956;73.412;2022-07-19T00:25:42;30.45;;;21.77;;
72201;SDS011;60105;54.956;73.412;2022-07-19T00:28:08;27.83;;;22.05;;
72201;SDS011;60105;54.956;73.412;2022-07-19T00:30:34;34.97;;;23.50;;
72201;SDS011;60105;54.956;73.412;2022-07-19T00:33:00;37.07;;;22.97;;
72201;SDS011;60105;54.956;73.412;2022-07-19T00:35:30;28.15;;;22.38;;
72201;SDS011;60105;54.956;73.412;2022-07-19T00:37:56;31.92;;;23.40;;
72201;SDS011;60105;54.956;73.412;2022-07-19T00:40:22;31.02;;;23.38;;
72201;SDS011;60105;54.956;73.412;2022-07-19T00:42:52;31.95;;;23.73;;
72201;SDS011;60105;54.956;73.412;2022-07-19T00:45:20;31.20;;;22.33;;
72201;SDS011;60105;54.956;73.412;2022-07-19T00:47:47;29.23;;;23.50;;
72201;SDS011;60105;54.956;73.412;2022-07-19T00:50:13;30.40;;;22.15;;
72201;SDS011;60105;54.956;73.412;2022-07-19T00:52:40;30.77;;;22.95;;
72201;SDS011;60105;54.956;73.412;2022-07-19T00:55:08;30.92;;;22.55;;
72201;SDS011;60105;54.956;73.412;2022-07-19T00:57:40;33.23;;;22.97;;
72201;SDS011;60105;54.956;73.412;2022-07-19T01:00:13;35.50;;;24.77;;
72201;SDS011;60105;54.956;73.412;2022-07-19T01:02:41;34.72;;;24.75;;
72201;SDS011;60105;54.956;73.412;2022-07-19T01:05:09;35.45;;;24.90;;
72201;SDS011;60105;54.956;73.412;2022-07-19T01:07:41;35.50;;;24.20;;
72201;SDS011;60105;54.956;73.412;2022-07-19T01:10:13;34.23;;;24.17;;
72201;SDS011;60105;54.956;73.412;2022-07-19T01:12:42;36.97;;;25.33;;
72201;SDS011;60105;54.956;73.412;2022-07-19T01:15:19;34.53;;;24.00;;
72201;SDS011;60105;54.956;73.412;2022-07-19T01:17:51;35.08;;;25.27;;
72201;SDS011;60105;54.956;73.412;2022-07-19T01:20:20;38.55;;;24.80;;
72201;SDS011;60105;54.956;73.412;2022-07-19T01:22:47;33.30;;;23.77;;
72201;SDS011;60105;54.956;73.412;2022-07-19T01:25:14;34.85;;;24.65;;
72201;SDS011;60105;54.956;73.412;2022-07-19T01:27:42;38.58;;;24.23;;
72201;SDS011;60105;54.956;73.412;2022-07-19T01:30:18;37.33;;;23.95;;
72201;SDS011;60105;54.956;73.412;2022-07-19T01:32:48;34.70;;;23.27;;
72201;SDS011;60105;54.956;73.412;2022-07-19T01:35:15;37.00;;;24.57;;
72201;SDS011;60105;54.956;73.412;2022-07-19T01:37:41;32.38;;;24.30;;
72201;SDS011;60105;54.956;73.412;2022-07-19T01:40:09;35.40;;;24.17;;
72201;SDS011;60105;54.956;73.412;2022-07-19T01:42:39;31.75;;;23.50;;
72201;SDS011;60105;54.956;73.412;2022-07-19T01:45:08;36.90;;;25.38;;
72201;SDS011;60105;54.956;73.412;2022-07-19T01:47:35;38.10;;;25.20;;
72201;SDS011;60105;54.956;73.412;2022-07-19T01:50:03;36.00;;;24.02;;
72201;SDS011;60105;54.956;73.412;2022-07-19T01:52:31;38.58;;;24.23;;
72201;SDS011;60105;54.956;73.412;2022-07-19T01:54:57;33.22;;;24.83;;
72201;SDS011;60105;54.956;73.412;2022-07-19T01:57:23;36.83;;;26.05;;
72201;SDS011;60105;54.956;73.412;2022-07-19T01:59:54;36.20;;;24.27;;
72201;SDS011;60105;54.956;73.412;2022-07-19T02:02:20;37.33;;;24.27;;
72201;SDS011;60105;54.956;73.412;2022-07-19T02:04:56;38.35;;;24.38;;
72201;SDS011;60105;54.956;73.412;2022-07-19T02:07:22;37.08;;;23.50;;
72201;SDS011;60105;54.956;73.412;2022-07-19T02:09:58;41.38;;;25.48;;
72201;SDS011;60105;54.956;73.412;2022-07-19T02:12:25;34.13;;;24.97;;
72201;SDS011;60105;54.956;73.412;2022-07-19T02:14:58;37.38;;;24.42;;
72201;SDS011;60105;54.956;73.412;2022-07-19T02:17:24;42.17;;;25.40;;
72201;SDS011;60105;54.956;73.412;2022-07-19T02:19:54;34.60;;;24.73;;
72201;SDS011;60105;54.956;73.412;2022-07-19T02:22:21;37.92;;;24.13;;
72201;SDS011;60105;54.956;73.412;2022-07-19T02:24:47;32.07;;;23.30;;
72201;SDS011;60105;54.956;73.412;2022-07-19T02:27:21;34.75;;;23.58;;
72201;SDS011;60105;54.956;73.412;2022-07-19T02:29:48;35.85;;;22.92;;
72201;SDS011;60105;54.956;73.412;2022-07-19T02:32:14;32.03;;;22.38;;
72201;SDS011;60105;54.956;73.412;2022-07-19T02:34:41;35.83;;;23.50;;
72201;SDS011;60105;54.956;73.412;2022-07-19T02:37:07;35.63;;;22.90;;
72201;SDS011;60105;54.956;73.412;2022-07-19T02:39:37;34.88;;;22.75;;
72201;SDS011;60105;54.956;73.412;2022-07-19T02:42:03;32.58;;;23.50;;
72201;SDS011;60105;54.956;73.412;2022-07-19T02:44:29;35.28;;;22.05;;
72201;SDS011;60105;54.956;73.412;2022-07-19T02:47:01;34.40;;;21.67;;
72201;SDS011;60105;54.956;73.412;2022-07-19T02:49:27;31.20;;;21.60;;
72201;SDS011;60105;54.956;73.412;2022-07-19T02:51:53;31.95;;;22.13;;
72201;SDS011;60105;54.956;73.412;2022-07-19T02:54:20;33.58;;;22.00;;
72201;SDS011;60105;54.956;73.412;2022-07-19T02:56:56;33.05;;;21.95;;
72201;SDS011;60105;54.956;73.412;2022-07-19T02:59:32;30.65;;;21.02;;
72201;SDS011;60105;54.956;73.412;2022-07-19T03:01:58;32.47;;;21.90;;
72201;SDS011;60105;54.956;73.412;2022-07-19T03:04:24;35.67;;;22.67;;
72201;SDS011;60105;54.956;73.412;2022-07-19T03:06:51;36.25;;;23.70;;
72201;SDS011;60105;54.956;73.412;2022-07-19T03:09:17;43.08;;;24.08;;
72201;SDS011;60105;54.956;73.412;2022-07-19T03:11:43;34.28;;;23.58;;
72201;SDS011;60105;54.956;73.412;2022-07-19T03:14:09;44.00;;;24.27;;
72201;SDS011;60105;54.956;73.412;2022-07-19T03:16:35;38.67;;;25.33;;
72201;SDS011;60105;54.956;73.412;2022-07-19T03:19:21;39.80;;;24.25;;
72201;SDS011;60105;54.956;73.412;2022-07-19T03:21:47;38.22;;;24.33;;
72201;SDS011;60105;54.956;73.412;2022-07-19T03:24:14;34.60;;;24.75;;
72201;SDS011;60105;54.956;73.412;2022-07-19T03:26:40;38.30;;;25.23;;
72201;SDS011;60105;54.956;73.412;2022-07-19T03:29:06;36.85;;;25.27;;
72201;SDS011;60105;54.956;73.412;2022-07-19T03:31:32;37.75;;;25.48;;
72201;SDS011;60105;54.956;73.412;2022-07-19T03:33:58;35.08;;;24.33;;
72201;SDS011;60105;54.956;73.412;2022-07-19T03:36:24;33.05;;;24.45;;
72201;SDS011;60105;54.956;73.412;2022-07-19T03:38:51;38.70;;;24.73;;
72201;SDS011;60105;54.956;73.412;2022-07-19T03:41:17;33.22;;;23.92;;
72201;SDS011;60105;54.956;73.412;2022-07-19T03:43:43;35.70;;;23.20;;
72201;SDS011;60105;54.956;73.412;2022-07-19T03:46:09;33.80;;;22.67;;
72201;SDS011;60105;54.956;73.412;2022-07-19T03:48:36;33.70;;;22.17;;
72201;SDS011;60105;54.956;73.412;2022-07-19T03:51:02;36.07;;;24.03;;
72201;SDS011;60105;54.956;73.412;2022-07-19T03:53:28;36.03;;;22.02;;
72201;SDS011;60105;54.956;73.412;2022-07-19T03:55:54;34.47;;;21.38;;
72201;SDS011;60105;54.956;73.412;2022-07-19T03:58:20;36.97;;;21.33;;
72201;SDS011;60105;54.956;73.412;2022-07-19T04:00:54;41.15;;;23.38;;
72201;SDS011;60105;54.956;73.412;2022-07-19T04:03:20;30.77;;;21.40;;
72201;SDS011;60105;54.956;73.412;2022-07-19T04:05:52;28.05;;;20.42;;
72201;SDS011;60105;54.956;73.412;2022-07-19T04:08:18;30.08;;;20.58;;
72201;SDS011;60105;54.956;73.412;2022-07-19T04:10:44;32.80;;;20.52;;
72201;SDS011;60105;54.956;73.412;2022-07-19T04:13:10;31.25;;;20.23;;
72201;SDS011;60105;54.956;73.412;2022-07-19T04:15:37;31.40;;;19.10;;
72201;SDS011;60105;54.956;73.412;2022-07-19T04:18:03;37.25;;;19.63;;
72201;SDS011;60105;54.956;73.412;2022-07-19T04:20:29;31.60;;;20.42;;
72201;SDS011;60105;54.956;73.412;2022-07-19T04:22:55;30.45;;;19.95;;
72201;SDS011;60105;54.956;73.412;2022-07-19T04:25:22;32.13;;;20.95;;
72201;SDS011;60105;54.956;73.412;2022-07-19T04:27:53;30.77;;;19.77;;
72201;SDS011;60105;54.956;73.412;2022-07-19T04:30:20;34.88;;;19.13;;
72201;SDS011;60105;54.956;73.412;2022-07-19T04:32:46;29.60;;;19.70;;
72201;SDS011;60105;54.956;73.412;2022-07-19T04:35:12;32.75;;;18.75;;
72201;SDS011;60105;54.956;73.412;2022-07-19T04:37:38;27.20;;;17.08;;
72201;SDS011;60105;54.956;73.412;2022-07-19T04:40:07;22.87;;;16.83;;
72201;SDS011;60105;54.956;73.412;2022-07-19T04:42:34;23.15;;;15.55;;
72201;SDS011;60105;54.956;73.412;2022-07-19T04:45:00;20.15;;;14.40;;
72201;SDS011;60105;54.956;73.412;2022-07-19T04:47:26;25.90;;;15.13;;
72201;SDS011;60105;54.956;73.412;2022-07-19T04:49:52;22.25;;;15.30;;
72201;SDS011;60105;54.956;73.412;2022-07-19T04:52:19;28.27;;;16.17;;
72201;SDS011;60105;54.956;73.412;2022-07-19T04:54:52;28.70;;;16.10;;
72201;SDS011;60105;54.956;73.412;2022-07-19T04:57:19;26.20;;;16.15;;
72201;SDS011;60105;54.956;73.412;2022-07-19T04:59:45;23.67;;;15.82;;
72201;SDS011;60105;54.956;73.412;2022-07-19T05:02:11;26.73;;;14.15;;
72201;SDS011;60105;54.956;73.412;2022-07-19T05:04:37;24.97;;;14.20;;
72201;SDS011;60105;54.956;73.412;2022-07-19T05:07:03;26.42;;;13.65;;
72201;SDS011;60105;54.956;73.412;2022-07-19T05:09:29;23.30;;;13.50;;
72201;SDS011;60105;54.956;73.412;2022-07-19T05:11:55;15.45;;;11.32;;
72201;SDS011;60105;54.956;73.412;2022-07-19T05:14:22;17.85;;;12.32;;
72201;SDS011;60105;54.956;73.412;2022-07-19T05:16:57;23.70;;;12.97;;
72201;SDS011;60105;54.956;73.412;2022-07-19T05:19:24;19.38;;;11.60;;
72201;SDS011;60105;54.956;73.412;2022-07-19T05:21:51;16.55;;;10.40;;
72201;SDS011;60105;54.956;73.412;2022-07-19T05:24:17;15.40;;;10.48;;
72201;SDS011;60105;54.956;73.412;2022-07-19T05:26:53;18.05;;;11.10;;
72201;SDS011;60105;54.956;73.412;2022-07-19T05:29:19;14.43;;;9.97;;
72201;SDS011;60105;54.956;73.412;2022-07-19T05:31:46;14.65;;;10.93;;
72201;SDS011;60105;54.956;73.412;2022-07-19T05:34:16;16.08;;;11.23;;
72201;SDS011;60105;54.956;73.412;2022-07-19T05:36:42;14.70;;;10.07;;
72201;SDS011;60105;54.956;73.412;2022-07-19T05:39:08;16.55;;;9.77;;
72201;SDS011;60105;54.956;73.412;2022-07-19T05:41:34;12.30;;;10.57;;
72201;SDS011;60105;54.956;73.412;2022-07-19T05:44:01;18.15;;;10.77;;
72201;SDS011;60105;54.956;73.412;2022-07-19T05:46:32;14.00;;;10.32;;
72201;SDS011;60105;54.956;73.412;2022-07-19T05:48:59;18.42;;;10.25;;
72201;SDS011;60105;54.956;73.412;2022-07-19T05:51:25;11.80;;;9.60;;
72201;SDS011;60105;54.956;73.412;2022-07-19T05:54:02;11.73;;;9.57;;
72201;SDS011;60105;54.956;73.412;2022-07-19T05:56:29;16.65;;;10.13;;
72201;SDS011;60105;54.956;73.412;2022-07-19T05:58:55;12.32;;;10.23;;
72201;SDS011;60105;54.956;73.412;2022-07-19T06:01:22;16.70;;;10.35;;
72201;SDS011;60105;54.956;73.412;2022-07-19T06:03:52;14.85;;;10.27;;
72201;SDS011;60105;54.956;73.412;2022-07-19T06:06:28;10.57;;;9.10;;
72201;SDS011;60105;54.956;73.412;2022-07-19T06:08:57;12.07;;;9.88;;
72201;SDS011;60105;54.956;73.412;2022-07-19T06:11:24;11.93;;;9.60;;
72201;SDS011;60105;54.956;73.412;2022-07-19T06:13:51;17.33;;;9.75;;
72201;SDS011;60105;54.956;73.412;2022-07-19T06:16:17;14.15;;;10.13;;
72201;SDS011;60105;54.956;73.412;2022-07-19T06:18:43;13.90;;;10.30;;
72201;SDS011;60105;54.956;73.412;2022-07-19T06:21:10;10.88;;;9.50;;
72201;SDS011;60105;54.956;73.412;2022-07-19T06:23:39;12.70;;;9.10;;
72201;SDS011;60105;54.956;73.412;2022-07-19T06:26:06;13.70;;;9.48;;
72201;SDS011;60105;54.956;73.412;2022-07-19T06:28:43;11.23;;;8.23;;
72201;SDS011;60105;54.956;73.412;2022-07-19T06:31:10;12.83;;;9.37;;
72201;SDS011;60105;54.956;73.412;2022-07-19T06:33:47;15.00;;;9.40;;
72201;SDS011;60105;54.956;73.412;2022-07-19T06:36:15;11.10;;;8.95;;
72201;SDS011;60105;54.956;73.412;2022-07-19T06:38:42;11.13;;;9.05;;
72201;SDS011;60105;54.956;73.412;2022-07-19T06:41:08;10.23;;;8.95;;
72201;SDS011;60105;54.956;73.412;2022-07-19T06:43:37;14.67;;;9.40;;
72201;SDS011;60105;54.956;73.412;2022-07-19T06:46:04;10.82;;;8.60;;
72201;SDS011;60105;54.956;73.412;2022-07-19T06:48:30;11.20;;;9.30;;
72201;SDS011;60105;54.956;73.412;2022-07-19T06:50:57;9.90;;;8.88;;
72201;SDS011;60105;54.956;73.412;2022-07-19T06:53:23;11.90;;;8.35;;
72201;SDS011;60105;54.956;73.412;2022-07-19T06:55:53;13.10;;;8.57;;
72201;SDS011;60105;54.956;73.412;2022-07-19T06:58:24;9.88;;;8.32;;
72201;SDS011;60105;54.956;73.412;2022-07-19T07:00:51;10.02;;;7.63;;
72201;SDS011;60105;54.956;73.412;2022-07-19T07:03:17;8.98;;;8.02;;
72201;SDS011;60105;54.956;73.412;2022-07-19T07:05:44;9.60;;;7.32;;
72201;SDS011;60105;54.956;73.412;2022-07-19T07:08:11;11.70;;;6.27;;
72201;SDS011;60105;54.956;73.412;2022-07-19T07:10:48;9.27;;;6.93;;
72201;SDS011;60105;54.956;73.412;2022-07-19T07:13:14;14.00;;;7.45;;
72201;SDS011;60105;54.956;73.412;2022-07-19T07:15:40;11.93;;;7.05;;
72201;SDS011;60105;54.956;73.412;2022-07-19T07:18:08;11.25;;;6.96;;
72201;SDS011;60105;54.956;73.412;2022-07-19T07:20:34;8.93;;;6.10;;
72201;SDS011;60105;54.956;73.412;2022-07-19T07:23:01;12.30;;;6.35;;
72201;SDS011;60105;54.956;73.412;2022-07-19T07:25:28;10.63;;;6.03;;
72201;SDS011;60105;54.956;73.412;2022-07-19T07:27:54;14.15;;;5.80;;
72201;SDS011;60105;54.956;73.412;2022-07-19T07:30:20;8.27;;;4.75;;
72201;SDS011;60105;54.956;73.412;2022-07-19T07:32:56;8.47;;;5.07;;
72201;SDS011;60105;54.956;73.412;2022-07-19T07:35:22;11.93;;;5.43;;
72201;SDS011;60105;54.956;73.412;2022-07-19T07:37:59;9.13;;;4.93;;
72201;SDS011;60105;54.956;73.412;2022-07-19T07:40:25;6.10;;;5.15;;
72201;SDS011;60105;54.956;73.412;2022-07-19T07:51:15;8.85;;;4.80;;
72201;SDS011;60105;54.956;73.412;2022-07-19T07:53:41;6.07;;;4.55;;
72201;SDS011;60105;54.956;73.412;2022-07-19T07:56:17;11.52;;;5.32;;
72201;SDS011;60105;54.956;73.412;2022-07-19T07:58:53;6.85;;;5.00;;
72201;SDS011;60105;54.956;73.412;2022-07-19T08:01:19;6.20;;;4.77;;
72201;SDS011;60105;54.956;73.412;2022-07-19T08:03:56;7.97;;;4.90;;
72201;SDS011;60105;54.956;73.412;2022-07-19T08:06:32;8.88;;;4.70;;
72201;SDS011;60105;54.956;73.412;2022-07-19T08:09:08;10.70;;;4.50;;
72201;SDS011;60105;54.956;73.412;2022-07-19T08:11:44;6.50;;;4.18;;
72201;SDS011;60105;54.956;73.412;2022-07-19T08:14:10;6.53;;;4.43;;
72201;SDS011;60105;54.956;73.412;2022-07-19T08:16:41;6.93;;;4.47;;
72201;SDS011;60105;54.956;73.412;2022-07-19T08:19:12;9.07;;;4.68;;
72201;SDS011;60105;54.956;73.412;2022-07-19T08:21:48;9.55;;;4.40;;
72201;SDS011;60105;54.956;73.412;2022-07-19T08:24:24;9.63;;;4.75;;
72201;SDS011;60105;54.956;73.412;2022-07-19T08:26:50;6.60;;;4.83;;
72201;SDS011;60105;54.956;73.412;2022-07-19T08:29:16;6.68;;;5.00;;
72201;SDS011;60105;54.956;73.412;2022-07-19T08:31:48;9.68;;;4.85;;
72201;SDS011;60105;54.956;73.412;2022-07-19T08:34:19;6.78;;;4.40;;
72201;SDS011;60105;54.956;73.412;2022-07-19T08:36:45;6.88;;;4.38;;
72201;SDS011;60105;54.956;73.412;2022-07-19T08:39:16;6.63;;;4.67;;
72201;SDS011;60105;54.956;73.412;2022-07-19T08:41:43;7.40;;;4.72;;
72201;SDS011;60105;54.956;73.412;2022-07-19T08:44:10;7.13;;;4.18;;
72201;SDS011;60105;54.956;73.412;2022-07-19T08:46:41;7.60;;;4.03;;
72201;SDS011;60105;54.956;73.412;2022-07-19T08:49:09;8.63;;;4.80;;
72201;SDS011;60105;54.956;73.412;2022-07-19T08:51:36;7.23;;;4.40;;
72201;SDS011;60105;54.956;73.412;2022-07-19T08:54:03;6.32;;;4.30;;
72201;SDS011;60105;54.956;73.412;2022-07-19T08:56:29;6.70;;;4.50;;
72201;SDS011;60105;54.956;73.412;2022-07-19T08:59:14;7.25;;;4.07;;
72201;SDS011;60105;54.956;73.412;2022-07-19T09:02:00;7.55;;;4.38;;
72201;SDS011;60105;54.956;73.412;2022-07-19T09:04:26;7.03;;;4.13;;
72201;SDS011;60105;54.956;73.412;2022-07-19T09:06:57;6.75;;;4.55;;
72201;SDS011;60105;54.956;73.412;2022-07-19T09:09:33;7.82;;;4.15;;
72201;SDS011;60105;54.956;73.412;2022-07-19T09:12:03;6.35;;;4.75;;
72201;SDS011;60105;54.956;73.412;2022-07-19T09:14:39;9.57;;;4.70;;
72201;SDS011;60105;54.956;73.412;2022-07-19T09:19:40;6.65;;;4.90;;
72201;SDS011;60105;54.956;73.412;2022-07-19T09:22:10;6.32;;;4.40;;
72201;SDS011;60105;54.956;73.412;2022-07-19T09:24:42;9.25;;;4.88;;
72201;SDS011;60105;54.956;73.412;2022-07-19T09:27:11;8.65;;;4.45;;
72201;SDS011;60105;54.956;73.412;2022-07-19T09:29:47;5.80;;;4.80;;
72201;SDS011;60105;54.956;73.412;2022-07-19T09:32:19;10.10;;;5.43;;
72201;SDS011;60105;54.956;73.412;2022-07-19T09:34:56;9.68;;;4.80;;
72201;SDS011;60105;54.956;73.412;2022-07-19T09:37:27;8.65;;;4.82;;
72201;SDS011;60105;54.956;73.412;2022-07-19T09:39:58;6.18;;;4.70;;
72201;SDS011;60105;54.956;73.412;2022-07-19T09:42:42;7.67;;;5.07;;
72201;SDS011;60105;54.956;73.412;2022-07-19T09:45:14;7.22;;;5.00;;
72201;SDS011;60105;54.956;73.412;2022-07-19T09:47:41;8.90;;;5.10;;
72201;SDS011;60105;54.956;73.412;2022-07-19T09:50:13;6.95;;;5.20;;
72201;SDS011;60105;54.956;73.412;2022-07-19T09:52:43;7.47;;;5.30;;
72201;SDS011;60105;54.956;73.412;2022-07-19T09:55:11;6.60;;;5.17;;
72201;SDS011;60105;54.956;73.412;2022-07-19T09:57:42;8.77;;;4.53;;
72201;SDS011;60105;54.956;73.412;2022-07-19T10:00:10;7.68;;;4.68;;
72201;SDS011;60105;54.956;73.412;2022-07-19T10:02:38;5.95;;;3.90;;
72201;SDS011;60105;54.956;73.412;2022-07-19T10:05:06;5.78;;;4.57;;
72201;SDS011;60105;54.956;73.412;2022-07-19T10:07:34;7.73;;;4.03;;
72201;SDS011;60105;54.956;73.412;2022-07-19T10:10:01;7.80;;;4.70;;
72201;SDS011;60105;54.956;73.412;2022-07-19T10:12:32;7.63;;;4.88;;
72201;SDS011;60105;54.956;73.412;2022-07-19T10:14:58;7.38;;;4.70;;
72201;SDS011;60105;54.956;73.412;2022-07-19T10:19:58;7.67;;;4.50;;
72201;SDS011;60105;54.956;73.412;2022-07-19T10:22:25;6.65;;;4.60;;
72201;SDS011;60105;54.956;73.412;2022-07-19T10:24:53;6.88;;;4.57;;
72201;SDS011;60105;54.956;73.412;2022-07-19T10:29:51;8.18;;;5.10;;
72201;SDS011;60105;54.956;73.412;2022-07-19T10:32:28;7.50;;;4.30;;
72201;SDS011;60105;54.956;73.412;2022-07-19T10:38:10;9.43;;;4.35;;
72201;SDS011;60105;54.956;73.412;2022-07-19T10:40:54;7.15;;;4.57;;
72201;SDS011;60105;54.956;73.412;2022-07-19T10:43:24;8.07;;;5.22;;
72201;SDS011;60105;54.956;73.412;2022-07-19T10:51:27;7.68;;;4.68;;
72201;SDS011;60105;54.956;73.412;2022-07-19T10:54:00;8.40;;;5.10;;
72201;SDS011;60105;54.956;73.412;2022-07-19T10:59:31;9.27;;;4.60;;
72201;SDS011;60105;54.956;73.412;2022-07-19T11:02:20;10.05;;;4.45;;
72201;SDS011;60105;54.956;73.412;2022-07-19T11:04:49;9.63;;;4.90;;
72201;SDS011;60105;54.956;73.412;2022-07-19T11:07:16;7.53;;;4.70;;
72201;SDS011;60105;54.956;73.412;2022-07-19T11:09:46;6.53;;;5.17;;
72201;SDS011;60105;54.956;73.412;2022-07-19T11:12:23;8.57;;;4.40;;
72201;SDS011;60105;54.956;73.412;2022-07-19T11:14:50;6.55;;;5.35;;
72201;SDS011;60105;54.956;73.412;2022-07-19T11:17:22;9.63;;;5.20;;
72201;SDS011;60105;54.956;73.412;2022-07-19T11:20:04;7.47;;;5.28;;
72201;SDS011;60105;54.956;73.412;2022-07-19T11:22:40;7.20;;;5.40;;
72201;SDS011;60105;54.956;73.412;2022-07-19T11:25:10;8.07;;;4.90;;
72201;SDS011;60105;54.956;73.412;2022-07-19T11:27:39;7.05;;;5.57;;
72201;SDS011;60105;54.956;73.412;2022-07-19T11:30:20;6.63;;;4.88;;
72201;SDS011;60105;54.956;73.412;2022-07-19T11:32:52;7.35;;;4.95;;
72201;SDS011;60105;54.956;73.412;2022-07-19T11:35:23;6.80;;;5.03;;
72201;SDS011;60105;54.956;73.412;2022-07-19T11:37:55;11.97;;;5.93;;
72201;SDS011;60105;54.956;73.412;2022-07-19T11:40:23;6.85;;;5.32;;
72201;SDS011;60105;54.956;73.412;2022-07-19T11:42:52;8.85;;;5.20;;
72201;SDS011;60105;54.956;73.412;2022-07-19T11:45:27;9.93;;;5.53;;
72201;SDS011;60105;54.956;73.412;2022-07-19T11:47:59;7.75;;;5.40;;
72201;SDS011;60105;54.956;73.412;2022-07-19T11:50:34;8.00;;;5.70;;
72201;SDS011;60105;54.956;73.412;2022-07-19T11:53:05;6.97;;;5.20;;
72201;SDS011;60105;54.956;73.412;2022-07-19T11:55:36;7.93;;;4.82;;
72201;SDS011;60105;54.956;73.412;2022-07-19T11:58:13;10.43;;;5.18;;
72201;SDS011;60105;54.956;73.412;2022-07-19T12:00:44;9.13;;;5.15;;
72201;SDS011;60105;54.956;73.412;2022-07-19T12:03:14;8.10;;;5.20;;
72201;SDS011;60105;54.956;73.412;2022-07-19T12:05:54;7.45;;;5.03;;
72201;SDS011;60105;54.956;73.412;2022-07-19T12:08:32;9.98;;;5.30;;
72201;SDS011;60105;54.956;73.412;2022-07-19T12:11:01;7.22;;;4.95;;
72201;SDS011;60105;54.956;73.412;2022-07-19T12:13:40;7.78;;;5.60;;
72201;SDS011;60105;54.956;73.412;2022-07-19T12:16:07;8.30;;;5.57;;
72201;SDS011;60105;54.956;73.412;2022-07-19T12:21:14;6.82;;;5.60;;
72201;SDS011;60105;54.956;73.412;2022-07-19T12:29:25;9.00;;;5.83;;
72201;SDS011;60105;54.956;73.412;2022-07-19T12:32:02;9.20;;;6.32;;
72201;SDS011;60105;54.956;73.412;2022-07-19T12:34:28;9.25;;;5.65;;
72201;SDS011;60105;54.956;73.412;2022-07-19T12:37:26;7.43;;;5.68;;
72201;SDS011;60105;54.956;73.412;2022-07-19T12:40:00;12.38;;;5.78;;
72201;SDS011;60105;54.956;73.412;2022-07-19T12:42:38;8.80;;;5.70;;
72201;SDS011;60105;54.956;73.412;2022-07-19T12:45:18;10.50;;;5.60;;
72201;SDS011;60105;54.956;73.412;2022-07-19T12:47:46;10.57;;;5.50;;
72201;SDS011;60105;54.956;73.412;2022-07-19T12:50:21;8.93;;;5.68;;
72201;SDS011;60105;54.956;73.412;2022-07-19T12:53:00;6.90;;;5.63;;
72201;SDS011;60105;54.956;73.412;2022-07-19T12:55:29;12.37;;;5.87;;
72201;SDS011;60105;54.956;73.412;2022-07-19T12:57:58;8.32;;;5.90;;
72201;SDS011;60105;54.956;73.412;2022-07-19T13:00:29;8.07;;;6.05;;
72201;SDS011;60105;54.956;73.412;2022-07-19T13:03:15;10.43;;;5.95;;
72201;SDS011;60105;54.956;73.412;2022-07-19T13:05:41;8.10;;;5.60;;
72201;SDS011;60105;54.956;73.412;2022-07-19T13:08:07;7.03;;;5.67;;
72201;SDS011;60105;54.956;73.412;2022-07-19T13:10:34;7.65;;;5.43;;
72201;SDS011;60105;54.956;73.412;2022-07-19T13:13:00;6.32;;;5.03;;
72201;SDS011;60105;54.956;73.412;2022-07-19T13:15:26;8.38;;;6.07;;
72201;SDS011;60105;54.956;73.412;2022-07-19T13:17:52;10.60;;;5.53;;
72201;SDS011;60105;54.956;73.412;2022-07-19T13:20:19;6.43;;;5.30;;
72201;SDS011;60105;54.956;73.412;2022-07-19T13:22:55;8.98;;;5.70;;
72201;SDS011;60105;54.956;73.412;2022-07-19T13:25:27;8.20;;;5.40;;
72201;SDS011;60105;54.956;73.412;2022-07-19T13:28:03;8.50;;;6.18;;
72201;SDS011;60105;54.956;73.412;2022-07-19T13:30:31;7.05;;;5.60;;
72201;SDS011;60105;54.956;73.412;2022-07-19T13:32:57;8.73;;;6.20;;
72201;SDS011;60105;54.956;73.412;2022-07-19T13:35:23;9.25;;;5.80;;
72201;SDS011;60105;54.956;73.412;2022-07-19T13:37:50;9.57;;;6.40;;
72201;SDS011;60105;54.956;73.412;2022-07-19T13:40:16;8.23;;;5.85;;
72201;SDS011;60105;54.956;73.412;2022-07-19T13:42:42;19.83;;;7.55;;
72201;SDS011;60105;54.956;73.412;2022-07-19T13:45:08;10.33;;;7.30;;
72201;SDS011;60105;54.956;73.412;2022-07-19T13:47:45;11.00;;;7.30;;
72201;SDS011;60105;54.956;73.412;2022-07-19T13:50:11;10.70;;;6.78;;
72201;SDS011;60105;54.956;73.412;2022-07-19T13:52:37;8.35;;;7.22;;
72201;SDS011;60105;54.956;73.412;2022-07-19T13:55:03;8.98;;;7.30;;
72201;SDS011;60105;54.956;73.412;2022-07-19T13:57:30;10.70;;;6.33;;
72201;SDS011;60105;54.956;73.412;2022-07-19T13:59:56;7.68;;;5.82;;
72201;SDS011;60105;54.956;73.412;2022-07-19T14:02:22;7.60;;;5.90;;
72201;SDS011;60105;54.956;73.412;2022-07-19T14:04:48;7.78;;;5.85;;
72201;SDS011;60105;54.956;73.412;2022-07-19T14:07:15;7.22;;;6.10;;
72201;SDS011;60105;54.956;73.412;2022-07-19T14:09:41;8.53;;;6.13;;
72201;SDS011;60105;54.956;73.412;2022-07-19T14:12:07;10.52;;;6.22;;
72201;SDS011;60105;54.956;73.412;2022-07-19T14:14:38;8.80;;;6.90;;
72201;SDS011;60105;54.956;73.412;2022-07-19T14:17:04;10.52;;;7.32;;
72201;SDS011;60105;54.956;73.412;2022-07-19T14:19:31;8.75;;;6.90;;
72201;SDS011;60105;54.956;73.412;2022-07-19T14:21:57;15.07;;;7.03;;
72201;SDS011;60105;54.956;73.412;2022-07-19T14:24:23;15.82;;;7.03;;
72201;SDS011;60105;54.956;73.412;2022-07-19T14:26:59;8.90;;;6.47;;
72201;SDS011;60105;54.956;73.412;2022-07-19T14:29:26;10.50;;;7.20;;
72201;SDS011;60105;54.956;73.412;2022-07-19T14:31:52;9.35;;;7.10;;
72201;SDS011;60105;54.956;73.412;2022-07-19T14:34:28;10.33;;;6.50;;
72201;SDS011;60105;54.956;73.412;2022-07-19T14:37:05;8.95;;;6.65;;
72201;SDS011;60105;54.956;73.412;2022-07-19T14:39:32;9.63;;;6.40;;
72201;SDS011;60105;54.956;73.412;2022-07-19T14:41:59;12.82;;;6.18;;
72201;SDS011;60105;54.956;73.412;2022-07-19T14:44:26;11.63;;;7.15;;
72201;SDS011;60105;54.956;73.412;2022-07-19T14:46:52;11.70;;;6.40;;
72201;SDS011;60105;54.956;73.412;2022-07-19T14:49:26;14.05;;;7.25;;
72201;SDS011;60105;54.956;73.412;2022-07-19T14:51:52;18.33;;;7.20;;
72201;SDS011;60105;54.956;73.412;2022-07-19T14:54:18;13.13;;;6.70;;
72201;SDS011;60105;54.956;73.412;2022-07-19T14:56:50;13.95;;;7.53;;
72201;SDS011;60105;54.956;73.412;2022-07-19T14:59:17;12.70;;;7.73;;
72201;SDS011;60105;54.956;73.412;2022-07-19T15:01:44;10.65;;;7.18;;
72201;SDS011;60105;54.956;73.412;2022-07-19T15:04:20;13.25;;;6.75;;
72201;SDS011;60105;54.956;73.412;2022-07-19T15:06:46;12.68;;;6.93;;
72201;SDS011;60105;54.956;73.412;2022-07-19T15:09:22;17.73;;;7.90;;